Time;durP1;ratioP1;P1;durP2;ratioP2;P2;SDS_P1;SDS_P2;PMS_P1;PMS_P2;Temp;Humidity;BMP_temperature;BMP_pressure;BME280_temperature;BME280_humidity;BME280_pressure;Samples;Min_cycle;Max_cycle;Signal;HPM_P1;HPM_P2
2022/07/05 00:00:56;;;;;;;4.80;1.47;;;16.00;99.90;;;;;;5100064;28;20188;-75
2022/07/05 00:03:22;;;;;;;4.23;1.47;;;16.00;99.90;;;;;;5105164;28;20445;-75
2022/07/05 00:05:48;;;;;;;2.70;1.20;;;16.00;99.90;;;;;;5091311;28;20668;-75
2022/07/05 00:08:13;;;;;;;2.43;1.33;;;16.00;99.90;;;;;;5090930;28;20690;-75
2022/07/05 00:10:39;;;;;;;3.60;1.53;;;16.00;99.90;;;;;;5092704;28;20618;-75
2022/07/05 00:13:05;;;;;;;3.30;1.33;;;16.00;99.90;;;;;;5097025;28;20177;-75
2022/07/05 00:15:31;;;;;;;2.30;1.37;;;15.90;99.90;;;;;;5095197;28;20168;-75
2022/07/05 00:17:57;;;;;;;2.10;1.30;;;15.80;99.90;;;;;;5095194;28;20418;-75
2022/07/05 00:20:23;;;;;;;6.50;2.00;;;15.80;99.90;;;;;;5085404;28;20426;-75
2022/07/05 00:22:49;;;;;;;3.10;1.67;;;15.80;99.90;;;;;;5090079;28;20177;-75
2022/07/05 00:25:15;;;;;;;3.27;1.73;;;15.80;99.90;;;;;;5093932;28;20414;-75
2022/07/05 00:27:41;;;;;;;4.10;2.00;;;15.80;99.90;;;;;;5087137;28;20342;-75
2022/07/05 00:30:07;;;;;;;4.90;1.30;;;15.80;99.90;;;;;;5102176;28;20176;-75
2022/07/05 00:32:33;;;;;;;4.50;1.60;;;15.70;99.90;;;;;;5092596;28;20469;-73
2022/07/05 00:34:59;;;;;;;2.40;1.50;;;15.70;99.90;;;;;;5104607;28;20785;-75
2022/07/05 00:37:25;;;;;;;2.70;1.90;;;15.70;99.90;;;;;;5086594;28;20187;-75
2022/07/05 00:39:51;;;;;;;4.07;2.00;;;15.60;99.90;;;;;;5107523;28;20187;-75
2022/07/05 00:42:17;;;;;;;7.20;1.83;;;15.60;99.90;;;;;;5094659;28;20410;-75
2022/07/05 00:44:43;;;;;;;3.30;1.57;;;15.50;99.90;;;;;;5082241;28;20181;-75
2022/07/05 00:47:12;;;;;;;2.83;1.77;;;15.50;99.90;;;;;;5079244;28;20292;-74
2022/07/05 00:49:39;;;;;;;2.30;1.50;;;15.50;99.90;;;;;;5095333;28;20272;-74
2022/07/05 00:52:05;;;;;;;2.20;1.17;;;15.50;99.90;;;;;;5103555;28;20909;-75
2022/07/05 00:54:34;;;;;;;5.00;1.53;;;15.50;99.90;;;;;;5097261;28;20451;-74
2022/07/05 00:56:59;;;;;;;2.57;1.70;;;15.40;99.90;;;;;;5104776;28;20419;-74
2022/07/05 00:59:26;;;;;;;3.90;1.93;;;15.40;99.90;;;;;;5088121;28;20957;-74
2022/07/05 01:01:52;;;;;;;2.23;1.33;;;15.30;99.90;;;;;;5080845;28;20192;-74
2022/07/05 01:04:18;;;;;;;4.07;1.87;;;15.30;99.90;;;;;;5093624;28;20422;-74
2022/07/05 01:06:47;;;;;;;2.00;1.30;;;15.20;99.90;;;;;;5085166;28;20204;-74
2022/07/05 01:09:15;;;;;;;2.00;1.20;;;15.20;99.90;;;;;;5112053;28;20201;-74
2022/07/05 01:11:44;;;;;;;3.60;1.47;;;15.10;99.90;;;;;;5091961;28;20967;-74
2022/07/05 01:14:15;;;;;;;4.27;2.47;;;15.10;99.90;;;;;;5093593;28;20924;-74
2022/07/05 01:16:40;;;;;;;2.80;1.60;;;15.10;99.90;;;;;;5109483;28;20938;-74
2022/07/05 01:19:07;;;;;;;8.63;2.03;;;15.00;99.90;;;;;;5104931;28;20569;-74
2022/07/05 01:21:46;;;;;;;2.50;1.70;;;14.90;99.90;;;;;;5100644;28;20662;-74
2022/07/05 01:24:13;;;;;;;6.27;2.20;;;14.90;99.90;;;;;;5081637;28;20471;-74
2022/07/05 01:26:41;;;;;;;2.63;1.60;;;14.90;99.90;;;;;;5079534;28;20550;-74
2022/07/05 01:29:08;;;;;;;5.20;1.63;;;14.90;99.90;;;;;;5107149;28;20415;-74
2022/07/05 01:31:38;;;;;;;3.23;1.60;;;14.90;99.90;;;;;;5105962;28;20428;-75
2022/07/05 01:34:05;;;;;;;2.40;1.50;;;14.90;99.90;;;;;;5086571;28;20447;-74
2022/07/05 01:36:31;;;;;;;3.57;1.50;;;14.80;99.90;;;;;;5084911;28;20453;-74
2022/07/05 01:38:57;;;;;;;3.50;1.83;;;14.80;99.90;;;;;;5111090;28;20421;-74
2022/07/05 01:41:22;;;;;;;2.70;1.53;;;14.70;99.90;;;;;;5103839;27;20419;-74
2022/07/05 01:43:48;;;;;;;3.93;1.77;;;14.50;99.90;;;;;;5094599;28;20586;-74
2022/07/05 01:46:16;;;;;;;2.10;1.40;;;14.50;99.90;;;;;;5098567;28;20605;-74
2022/07/05 01:48:42;;;;;;;4.17;1.90;;;14.40;99.90;;;;;;5086939;28;20230;-74
2022/07/05 01:51:18;;;;;;;3.93;1.70;;;14.40;99.90;;;;;;5088427;28;20801;-74
2022/07/05 01:53:46;;;;;;;2.47;1.53;;;14.40;99.90;;;;;;5097427;28;20176;-74
2022/07/05 01:56:12;;;;;;;3.17;1.53;;;14.40;99.90;;;;;;5082700;28;20462;-74
2022/07/05 01:58:39;;;;;;;3.07;1.47;;;14.30;99.90;;;;;;5083825;28;20935;-74
2022/07/05 02:01:04;;;;;;;2.63;1.20;;;14.30;99.90;;;;;;5092817;28;20180;-74
2022/07/05 02:03:30;;;;;;;2.63;1.57;;;14.30;99.90;;;;;;5102770;28;20409;-74
2022/07/05 02:05:56;;;;;;;3.20;1.50;;;14.20;99.90;;;;;;5099405;28;20181;-74
2022/07/05 02:08:28;;;;;;;3.40;1.57;;;14.20;99.90;;;;;;5113131;28;20531;-74
2022/07/05 02:10:53;;;;;;;2.80;1.87;;;14.20;99.90;;;;;;5110842;28;20183;-74
2022/07/05 02:13:20;;;;;;;3.63;1.47;;;14.20;99.90;;;;;;5085477;28;20414;-74
2022/07/05 02:15:46;;;;;;;5.03;1.53;;;14.20;99.90;;;;;;5113046;27;20208;-74
2022/07/05 02:18:12;;;;;;;2.47;1.70;;;14.10;99.90;;;;;;5087302;28;20505;-74
2022/07/05 02:20:38;;;;;;;5.13;1.40;;;14.10;99.90;;;;;;5078454;28;20278;-74
2022/07/05 02:23:04;;;;;;;3.00;1.10;;;14.10;99.90;;;;;;5097439;28;20198;-74
2022/07/05 02:25:30;;;;;;;1.93;1.17;;;14.20;99.90;;;;;;5112724;28;20418;-74
2022/07/05 02:27:56;;;;;;;2.07;1.03;;;14.20;99.90;;;;;;5101542;28;20200;-74
2022/07/05 02:30:22;;;;;;;4.53;1.10;;;14.20;99.90;;;;;;5081767;28;20188;-74
2022/07/05 02:32:48;;;;;;;2.40;1.37;;;14.10;99.90;;;;;;5091648;28;20472;-74
2022/07/05 02:35:13;;;;;;;3.80;1.30;;;14.10;99.90;;;;;;5092569;28;20887;-74
2022/07/05 02:37:39;;;;;;;1.93;0.93;;;14.10;99.90;;;;;;5094830;28;20185;-74
2022/07/05 02:40:11;;;;;;;6.60;1.67;;;14.00;99.90;;;;;;5112634;28;20180;-74
2022/07/05 02:42:38;;;;;;;2.47;0.90;;;14.00;99.90;;;;;;5095135;28;20472;-74
2022/07/05 02:45:05;;;;;;;4.70;1.37;;;13.90;99.90;;;;;;5106018;28;20454;-74
2022/07/05 02:47:32;;;;;;;2.60;1.43;;;13.80;99.90;;;;;;5092046;28;20469;-74
2022/07/05 02:49:59;;;;;;;5.20;1.20;;;13.80;99.90;;;;;;5090951;28;20409;-74
2022/07/05 02:52:25;;;;;;;3.47;1.47;;;13.70;99.90;;;;;;5094353;28;20829;-74
2022/07/05 02:54:51;;;;;;;2.40;1.40;;;13.60;99.90;;;;;;5093051;28;20435;-74
2022/07/05 02:57:16;;;;;;;2.67;1.60;;;13.60;99.90;;;;;;5091647;28;20558;-74
2022/07/05 02:59:42;;;;;;;2.30;1.10;;;13.50;99.90;;;;;;5105725;28;20176;-74
2022/07/05 03:02:08;;;;;;;2.73;1.77;;;13.50;99.90;;;;;;5084182;28;20177;-74
2022/07/05 03:04:33;;;;;;;3.23;1.40;;;13.50;99.90;;;;;;5094764;28;20598;-74
2022/07/05 03:06:59;;;;;;;2.73;1.00;;;13.50;99.90;;;;;;5091739;28;20208;-74
2022/07/05 03:09:25;;;;;;;1.80;1.20;;;13.50;99.90;;;;;;5095391;28;20196;-74
2022/07/05 03:11:51;;;;;;;2.30;1.47;;;13.50;99.90;;;;;;5097659;28;20430;-74
2022/07/05 03:14:16;;;;;;;3.07;1.50;;;13.50;99.90;;;;;;5102702;28;20187;-74
2022/07/05 03:16:44;;;;;;;3.73;1.60;;;13.50;99.90;;;;;;5090124;28;20227;-74
2022/07/05 03:19:10;;;;;;;6.90;1.30;;;13.40;99.90;;;;;;5099097;28;20206;-74
2022/07/05 03:21:35;;;;;;;4.40;1.60;;;13.40;99.90;;;;;;5097587;28;20442;-74
2022/07/05 03:24:01;;;;;;;1.87;1.03;;;13.40;99.90;;;;;;5105114;28;20259;-74
2022/07/05 03:26:26;;;;;;;1.83;1.17;;;13.40;99.90;;;;;;5091614;28;20618;-74
2022/07/05 03:28:52;;;;;;;3.40;1.63;;;13.40;99.90;;;;;;5100532;28;20181;-74
2022/07/05 03:31:18;;;;;;;3.33;1.33;;;13.40;99.90;;;;;;5091368;28;20187;-75
2022/07/05 03:33:43;;;;;;;5.43;1.50;;;13.40;99.90;;;;;;5094435;28;20204;-74
2022/07/05 03:36:09;;;;;;;1.90;1.10;;;13.30;99.90;;;;;;5103222;28;20180;-74
2022/07/05 03:38:36;;;;;;;7.30;1.80;;;13.30;99.90;;;;;;5105904;28;20176;-77
2022/07/05 03:41:01;;;;;;;4.57;1.70;;;13.30;99.90;;;;;;5088902;28;20602;-74
2022/07/05 03:43:27;;;;;;;2.43;1.40;;;13.30;99.90;;;;;;5076781;28;20514;-74
2022/07/05 03:45:54;;;;;;;2.37;1.30;;;13.30;99.90;;;;;;5092943;28;20353;-74
2022/07/05 03:48:20;;;;;;;2.10;1.10;;;13.30;99.90;;;;;;5095275;28;20295;-74
2022/07/05 03:50:46;;;;;;;3.17;1.50;;;13.30;99.90;;;;;;5108717;28;20421;-74
2022/07/05 03:53:12;;;;;;;2.40;1.20;;;13.30;99.90;;;;;;5094936;28;20441;-74
2022/07/05 03:55:37;;;;;;;2.97;1.73;;;13.30;99.90;;;;;;5110659;28;20168;-75
2022/07/05 03:58:03;;;;;;;10.43;1.83;;;13.20;99.90;;;;;;5094442;28;20638;-74
2022/07/05 04:00:29;;;;;;;2.87;1.33;;;13.20;99.90;;;;;;5096971;28;20237;-75
2022/07/05 04:02:54;;;;;;;2.67;1.30;;;13.20;99.90;;;;;;5107264;28;20180;-74
2022/07/05 04:05:20;;;;;;;2.67;1.20;;;13.20;99.90;;;;;;5098759;28;20191;-74
2022/07/05 04:07:56;;;;;;;2.53;1.33;;;13.30;99.90;;;;;;5108330;28;20195;-74
2022/07/05 04:10:22;;;;;;;11.10;1.67;;;13.30;99.90;;;;;;5113157;28;20182;-74
2022/07/05 04:12:48;;;;;;;2.00;1.30;;;13.30;99.90;;;;;;5095042;28;20521;-74
2022/07/05 04:15:14;;;;;;;4.70;1.20;;;13.30;99.90;;;;;;5094910;28;20967;-74
2022/07/05 04:17:54;;;;;;;3.50;1.60;;;13.40;99.90;;;;;;5088011;28;20190;-74
2022/07/05 04:20:27;;;;;;;2.20;0.97;;;13.40;99.90;;;;;;5095053;28;20417;-75
2022/07/05 04:22:55;;;;;;;2.23;0.90;;;13.50;99.90;;;;;;5090555;28;20446;-74
2022/07/05 04:25:20;;;;;;;2.37;1.20;;;13.50;99.90;;;;;;5089912;28;20471;-74
2022/07/05 04:27:51;;;;;;;1.83;1.17;;;13.60;99.90;;;;;;5077163;28;20681;-75
2022/07/05 04:30:19;;;;;;;2.23;1.10;;;13.60;99.90;;;;;;5081967;28;20180;-75
2022/07/05 04:32:45;;;;;;;2.20;1.27;;;13.70;99.90;;;;;;5081505;28;20524;-75
2022/07/05 04:35:11;;;;;;;3.90;1.87;;;13.70;99.90;;;;;;5083532;28;20439;-75
2022/07/05 04:37:38;;;;;;;1.97;1.13;;;13.80;99.90;;;;;;5079501;28;20426;-75
2022/07/05 04:40:08;;;;;;;20.77;1.80;;;13.80;99.90;;;;;;5075136;28;20785;-75
2022/07/05 04:42:34;;;;;;;3.97;1.60;;;13.90;99.90;;;;;;5081452;28;20422;-75
2022/07/05 04:45:00;;;;;;;3.73;1.53;;;13.90;99.90;;;;;;5088066;28;20418;-75
2022/07/05 04:47:26;;;;;;;2.07;1.13;;;13.90;99.90;;;;;;5082971;28;20469;-75
2022/07/05 04:49:53;;;;;;;5.53;1.60;;;13.90;99.90;;;;;;5092314;28;20184;-75
2022/07/05 04:52:18;;;;;;;3.10;1.33;;;14.00;99.90;;;;;;5087308;28;20264;-75
2022/07/05 04:54:44;;;;;;;4.83;1.67;;;14.10;99.90;;;;;;5089885;28;20511;-75
2022/07/05 04:57:10;;;;;;;2.57;1.27;;;14.10;99.90;;;;;;5089236;28;20658;-75
2022/07/05 04:59:35;;;;;;;2.13;1.30;;;14.20;99.90;;;;;;5084898;28;20181;-75
2022/07/05 05:02:01;;;;;;;2.67;1.43;;;14.20;99.90;;;;;;5084158;28;20231;-75
2022/07/05 05:04:27;;;;;;;2.60;1.70;;;14.20;99.90;;;;;;5084128;28;20653;-75
2022/07/05 05:06:52;;;;;;;2.60;1.43;;;14.30;99.90;;;;;;5087854;28;20219;-75
2022/07/05 05:09:18;;;;;;;3.40;1.93;;;14.30;99.90;;;;;;5085342;28;20172;-75
2022/07/05 05:11:43;;;;;;;2.23;1.33;;;14.40;99.90;;;;;;5086340;28;20188;-75
2022/07/05 05:14:09;;;;;;;2.97;2.00;;;14.40;99.90;;;;;;5082637;28;20181;-75
2022/07/05 05:16:35;;;;;;;2.77;1.27;;;14.50;99.90;;;;;;5077575;28;20185;-75
2022/07/05 05:19:00;;;;;;;3.10;1.47;;;14.60;99.90;;;;;;5075310;28;20295;-75
2022/07/05 05:21:26;;;;;;;9.73;1.27;;;14.70;99.90;;;;;;5075125;28;20255;-75
2022/07/05 05:23:52;;;;;;;3.00;1.40;;;14.80;99.90;;;;;;5078419;28;20514;-75
2022/07/05 05:26:17;;;;;;;1.90;1.00;;;14.90;99.90;;;;;;5075655;28;20746;-74
2022/07/05 05:28:43;;;;;;;3.60;1.40;;;15.00;99.90;;;;;;5078145;28;20185;-74
2022/07/05 05:31:09;;;;;;;3.73;1.53;;;15.10;99.90;;;;;;5074941;28;20185;-73
2022/07/05 05:33:35;;;;;;;3.03;1.27;;;15.20;99.90;;;;;;5078422;28;20207;-74
2022/07/05 05:36:01;;;;;;;5.63;1.40;;;15.20;99.90;;;;;;5085028;28;20426;-74
2022/07/05 05:38:27;;;;;;;2.13;0.90;;;15.30;99.90;;;;;;5087083;28;20185;-74
2022/07/05 05:40:53;;;;;;;2.57;0.93;;;15.40;99.90;;;;;;5086256;28;20419;-75
2022/07/05 05:43:18;;;;;;;2.33;1.27;;;15.50;99.90;;;;;;5083627;28;20438;-74
2022/07/05 05:45:44;;;;;;;3.33;0.80;;;15.60;99.90;;;;;;5085099;28;20204;-74
2022/07/05 05:48:10;;;;;;;1.60;0.90;;;15.60;99.90;;;;;;5074864;28;20211;-75
2022/07/05 05:50:38;;;;;;;3.27;1.43;;;15.70;99.90;;;;;;5091878;28;20211;-74
2022/07/05 05:53:05;;;;;;;2.43;1.30;;;15.80;99.90;;;;;;5087691;28;20268;-75
2022/07/05 05:55:31;;;;;;;7.23;1.37;;;15.90;99.90;;;;;;5089623;28;20462;-74
2022/07/05 05:58:10;;;;;;;14.63;1.20;;;16.00;99.90;;;;;;5080951;28;20446;-74
2022/07/05 06:00:36;;;;;;;3.73;0.87;;;16.10;99.90;;;;;;5082006;28;20431;-74
2022/07/05 06:03:02;;;;;;;2.70;1.10;;;16.10;99.30;;;;;;5090616;28;20418;-75
2022/07/05 06:05:27;;;;;;;2.20;0.93;;;16.20;99.30;;;;;;5081477;28;20191;-74
2022/07/05 06:07:56;;;;;;;2.73;1.07;;;16.30;99.40;;;;;;5076699;28;20215;-74
2022/07/05 06:10:23;;;;;;;2.80;1.30;;;16.40;99.80;;;;;;5088653;28;20196;-75
2022/07/05 06:12:50;;;;;;;2.37;1.07;;;16.40;99.50;;;;;;5082894;28;20503;-75
2022/07/05 06:15:16;;;;;;;1.80;1.00;;;16.50;98.80;;;;;;5091873;28;20497;-75
2022/07/05 06:17:42;;;;;;;1.87;0.97;;;16.50;98.90;;;;;;5091025;28;20530;-75
2022/07/05 06:20:19;;;;;;;6.30;1.57;;;16.60;99.40;;;;;;5091721;28;20415;-75
2022/07/05 06:22:45;;;;;;;6.77;1.10;;;16.60;99.30;;;;;;5081827;28;20215;-75
2022/07/05 06:25:10;;;;;;;2.40;1.07;;;16.70;99.40;;;;;;5084255;28;20426;-75
2022/07/05 06:27:41;;;;;;;3.40;1.30;;;16.80;99.70;;;;;;5089499;28;20557;-75
2022/07/05 06:30:08;;;;;;;2.57;0.77;;;16.90;99.10;;;;;;5068266;28;20176;-74
2022/07/05 06:32:34;;;;;;;2.13;0.90;;;17.00;99.00;;;;;;5083920;28;20412;-75
2022/07/05 06:35:00;;;;;;;9.63;1.47;;;17.10;98.30;;;;;;5083026;28;20412;-74
2022/07/05 06:37:25;;;;;;;2.37;1.37;;;17.20;98.80;;;;;;5076494;28;20841;-75
2022/07/05 06:39:51;;;;;;;1.50;0.70;;;17.30;97.70;;;;;;5080894;28;20555;-75
2022/07/05 06:42:16;;;;;;;2.37;1.10;;;17.30;97.40;;;;;;5080233;28;20234;-75
2022/07/05 06:44:43;;;;;;;2.67;1.07;;;17.40;97.40;;;;;;5080808;28;20177;-74
2022/07/05 06:47:09;;;;;;;10.30;0.90;;;17.50;97.20;;;;;;5082815;28;20200;-74
2022/07/05 06:49:35;;;;;;;1.60;0.70;;;17.50;97.20;;;;;;5089734;28;20777;-75
2022/07/05 06:52:01;;;;;;;3.87;1.17;;;17.60;96.20;;;;;;5087095;28;20409;-75
2022/07/05 06:54:26;;;;;;;1.60;0.90;;;17.70;96.60;;;;;;5089705;28;20232;-75
2022/07/05 06:56:55;;;;;;;1.77;0.70;;;17.80;96.40;;;;;;5090132;28;20184;-75
2022/07/05 06:59:21;;;;;;;3.03;1.10;;;18.00;95.70;;;;;;5080906;28;20208;-76
2022/07/05 07:01:47;;;;;;;1.53;0.67;;;18.10;95.50;;;;;;5091290;28;20429;-75
2022/07/05 07:04:13;;;;;;;2.33;1.10;;;18.20;95.40;;;;;;5086871;28;20423;-75
2022/07/05 07:06:38;;;;;;;3.93;1.07;;;18.40;95.40;;;;;;5089889;28;20840;-75
2022/07/05 07:09:20;;;;;;;3.93;1.03;;;18.50;95.10;;;;;;5079347;28;20532;-75
2022/07/05 07:11:47;;;;;;;1.70;0.80;;;18.70;94.40;;;;;;5070546;28;20271;-75
2022/07/05 07:14:12;;;;;;;1.47;0.60;;;18.90;94.50;;;;;;5081570;28;20411;-75
2022/07/05 07:16:38;;;;;;;2.23;1.00;;;19.10;93.70;;;;;;5089984;28;20429;-76
2022/07/05 07:19:03;;;;;;;1.30;0.50;;;19.30;93.00;;;;;;5082158;28;20812;-75
2022/07/05 07:21:29;;;;;;;1.60;0.73;;;19.50;92.50;;;;;;5076282;28;20694;-76
2022/07/05 07:23:55;;;;;;;1.80;1.00;;;19.70;91.30;;;;;;5091833;28;20183;-75
2022/07/05 07:26:20;;;;;;;1.50;0.70;;;20.00;91.60;;;;;;5077978;28;20183;-76
2022/07/05 07:28:46;;;;;;;1.70;0.70;;;20.10;90.80;;;;;;5074490;28;20248;-75
2022/07/05 07:31:12;;;;;;;3.73;0.87;;;20.60;90.00;;;;;;5078191;28;20278;-75
2022/07/05 07:33:37;;;;;;;3.57;1.03;;;21.10;90.30;;;;;;5078954;28;20634;-76
2022/07/05 07:36:03;;;;;;;3.67;0.93;;;21.60;87.60;;;;;;5075224;28;20275;-75
2022/07/05 07:38:29;;;;;;;2.37;0.83;;;22.00;84.90;;;;;;5085715;28;20630;-78
2022/07/05 07:40:55;;;;;;;1.90;0.80;;;22.60;83.80;;;;;;5082170;28;20511;-76
2022/07/05 07:43:21;;;;;;;1.50;0.60;;;23.00;80.70;;;;;;5080616;28;20172;-76
2022/07/05 07:45:48;;;;;;;1.93;0.90;;;23.70;79.70;;;;;;5083241;28;20906;-77
2022/07/05 07:48:14;;;;;;;2.70;1.20;;;24.60;79.40;;;;;;5085825;28;20665;-77
2022/07/05 07:50:40;;;;;;;1.60;0.70;;;25.60;74.00;;;;;;5080894;28;20259;-77
2022/07/05 07:53:05;;;;;;;3.67;0.88;;;26.60;71.60;;;;;;5087764;28;20182;-77
2022/07/05 07:55:31;;;;;;;4.80;0.98;;;27.60;68.30;;;;;;5077596;28;20176;-77
2022/07/05 07:57:57;;;;;;;1.98;0.82;;;28.10;64.90;;;;;;5082551;28;20207;-77
2022/07/05 08:00:22;;;;;;;2.03;0.98;;;28.20;65.10;;;;;;5085005;28;20202;-77
2022/07/05 08:02:48;;;;;;;2.17;0.80;;;29.50;61.20;;;;;;5079401;28;20179;-77
2022/07/05 08:05:13;;;;;;;4.38;1.00;;;29.90;58.50;;;;;;5077140;28;20629;-77
2022/07/05 08:07:39;;;;;;;2.05;0.70;;;29.70;58.90;;;;;;5078692;28;20672;-77
2022/07/05 08:10:06;;;;;;;2.38;1.17;;;29.90;59.20;;;;;;5086972;28;20202;-78
2022/07/05 08:12:31;;;;;;;1.90;0.88;;;30.10;56.70;;;;;;5083963;28;20199;-77
2022/07/05 08:14:57;;;;;;;1.85;0.77;;;30.20;56.20;;;;;;5088371;28;20645;-77
2022/07/05 08:17:23;;;;;;;2.03;1.05;;;30.30;56.20;;;;;;5092687;28;20190;-77
2022/07/05 08:22:32;;;;;;;2.30;0.88;;;29.90;57.10;;;;;;5092170;28;20941;-77
2022/07/05 08:24:58;;;;;;;2.15;0.82;;;29.30;58.10;;;;;;5093984;28;20184;-77
2022/07/05 08:27:24;;;;;;;1.70;0.77;;;29.20;60.40;;;;;;5089471;28;20208;-77
2022/07/05 08:29:50;;;;;;;2.13;0.88;;;29.10;59.20;;;;;;5084734;28;20206;-77
2022/07/05 08:32:16;;;;;;;3.97;0.80;;;29.30;57.90;;;;;;5092974;28;21097;-77
2022/07/05 08:34:42;;;;;;;3.50;0.90;;;29.30;56.60;;;;;;5086179;28;20187;-77
2022/07/05 08:37:08;;;;;;;2.08;0.70;;;29.10;57.10;;;;;;5082975;28;20234;-77
2022/07/05 08:39:34;;;;;;;1.77;0.80;;;29.10;57.00;;;;;;5089657;28;20184;-78
2022/07/05 08:42:00;;;;;;;2.00;0.95;;;28.70;57.70;;;;;;5083150;28;20195;-78
2022/07/05 08:44:28;;;;;;;1.85;0.85;;;29.10;57.10;;;;;;5081303;28;20188;-78
2022/07/05 08:46:56;;;;;;;1.70;0.82;;;29.30;56.20;;;;;;5079276;28;20232;-79
2022/07/05 08:49:28;;;;;;;2.08;0.73;;;28.90;58.20;;;;;;5085869;28;20184;-79
2022/07/05 08:51:55;;;;;;;1.63;0.73;;;29.40;56.50;;;;;;5083356;28;20188;-79
2022/07/05 08:54:23;;;;;;;6.90;0.98;;;29.30;55.90;;;;;;5083656;28;20694;-79
2022/07/05 08:56:50;;;;;;;2.70;1.10;;;29.40;57.20;;;;;;5090837;28;20238;-79
2022/07/05 08:59:15;;;;;;;1.80;0.73;;;29.50;54.90;;;;;;5088235;28;20259;-79
2022/07/05 09:01:44;;;;;;;1.50;0.63;;;29.20;57.00;;;;;;5088987;28;20259;-79
2022/07/05 09:04:13;;;;;;;7.20;0.90;;;29.40;54.80;;;;;;5079966;28;20180;-79
2022/07/05 09:06:39;;;;;;;1.80;0.77;;;29.30;54.20;;;;;;5084700;28;20270;-79
2022/07/05 09:09:06;;;;;;;2.15;0.73;;;29.50;53.10;;;;;;5088069;28;20838;-79
2022/07/05 09:11:37;;;;;;;2.35;1.00;;;29.30;54.60;;;;;;5081615;28;20173;-79
2022/07/05 09:14:05;;;;;;;1.80;0.70;;;29.50;54.50;;;;;;5084391;28;20263;-79
2022/07/05 09:16:32;;;;;;;1.50;0.60;;;29.90;53.70;;;;;;5085372;28;20255;-79
2022/07/05 09:19:07;;;;;;;2.20;0.93;;;29.50;55.50;;;;;;5081136;28;20224;-79
2022/07/05 09:21:33;;;;;;;4.50;0.90;;;29.50;54.90;;;;;;5085340;28;20211;-79
2022/07/05 09:24:04;;;;;;;3.20;0.80;;;29.50;53.30;;;;;;5083273;28;20169;-79
2022/07/05 09:26:35;;;;;;;1.80;0.70;;;29.10;55.70;;;;;;5086266;28;20242;-80
2022/07/05 09:29:01;;;;;;;1.92;0.70;;;29.30;53.00;;;;;;5088225;28;20191;-80
2022/07/05 09:31:33;;;;;;;2.08;0.77;;;29.40;51.60;;;;;;5083026;28;20186;-79
2022/07/05 09:34:11;;;;;;;1.75;0.65;;;28.90;53.30;;;;;;5084887;28;20207;-79
2022/07/05 09:36:58;;;;;;;1.60;0.68;;;28.80;53.00;;;;;;5093004;28;20194;-79
2022/07/05 09:39:30;;;;;;;1.70;0.80;;;29.00;52.80;;;;;;5080029;28;20180;-79
2022/07/05 09:42:20;;;;;;;1.60;0.60;;;28.80;54.60;;;;;;5089880;28;20630;-80
2022/07/05 09:44:53;;;;;;;2.08;0.88;;;28.90;53.40;;;;;;5087203;28;20181;-79
2022/07/05 09:47:29;;;;;;;2.47;0.80;;;29.20;52.80;;;;;;5090781;28;20204;-79
2022/07/05 09:49:56;;;;;;;8.77;1.00;;;29.20;52.70;;;;;;5084479;28;20179;-76
2022/07/05 09:52:35;;;;;;;2.08;0.75;;;28.90;52.70;;;;;;5083683;28;20176;-77
2022/07/05 09:55:05;;;;;;;2.05;0.70;;;28.80;50.10;;;;;;5085676;28;20692;-78
2022/07/05 09:57:32;;;;;;;1.70;0.70;;;28.50;54.10;;;;;;5086081;28;20283;-78
2022/07/05 10:00:19;;;;;;;1.65;0.70;;;28.50;53.60;;;;;;5079118;28;20885;-77
2022/07/05 10:02:47;;;;;;;2.80;0.70;;;28.60;54.00;;;;;;5081079;28;20209;-77
2022/07/05 10:05:13;;;;;;;3.20;0.73;;;29.00;52.90;;;;;;5082755;28;20173;-78
2022/07/05 10:07:45;;;;;;;3.95;1.00;;;28.80;52.60;;;;;;5075077;28;20779;-77
2022/07/05 10:10:15;;;;;;;2.63;0.90;;;28.90;52.80;;;;;;5085520;28;20199;-78
2022/07/05 10:12:46;;;;;;;3.13;0.88;;;28.70;53.70;;;;;;5080741;28;20267;-78
2022/07/05 10:15:15;;;;;;;1.60;0.80;;;28.70;53.20;;;;;;5085803;28;20181;-77
2022/07/05 10:17:59;;;;;;;4.00;0.80;;;28.70;53.20;;;;;;5077882;28;20189;-77
2022/07/05 10:20:37;;;;;;;1.50;0.70;;;28.80;53.50;;;;;;5084918;28;20180;-78
2022/07/05 10:23:07;;;;;;;6.82;0.77;;;28.70;53.40;;;;;;5081473;28;20200;-78
2022/07/05 10:25:36;;;;;;;3.33;1.00;;;28.70;51.90;;;;;;5086159;28;20793;-77
2022/07/05 10:28:03;;;;;;;9.18;0.90;;;28.30;52.60;;;;;;5078090;28;20234;-77
2022/07/05 10:30:30;;;;;;;2.63;0.70;;;28.00;53.40;;;;;;5075095;28;20184;-77
2022/07/05 10:32:56;;;;;;;5.35;1.17;;;27.60;54.70;;;;;;5078667;28;20185;-77
2022/07/05 10:35:22;;;;;;;2.78;0.82;;;27.70;54.00;;;;;;5079428;28;20298;-77
2022/07/05 10:37:49;;;;;;;9.87;0.70;;;27.70;53.70;;;;;;5086765;28;20176;-77
2022/07/05 10:40:18;;;;;;;1.80;0.70;;;27.70;53.30;;;;;;5082112;28;20180;-77
2022/07/05 10:42:45;;;;;;;3.10;0.90;;;27.60;53.00;;;;;;5080443;28;20172;-77
2022/07/05 10:45:30;;;;;;;2.67;1.03;;;27.60;52.70;;;;;;5085521;28;20205;-77
2022/07/05 10:48:24;;;;;;;2.27;0.90;;;27.40;54.10;;;;;;5085965;28;20211;-77
2022/07/05 10:51:16;;;;;;;2.97;1.00;;;27.20;55.40;;;;;;5083130;28;20298;-77
2022/07/05 10:53:41;;;;;;;1.80;0.90;;;26.80;58.40;;;;;;5088902;28;20259;-77
2022/07/05 10:56:07;;;;;;;2.83;1.10;;;27.20;57.00;;;;;;5082430;28;20501;-76
2022/07/05 10:58:36;;;;;;;2.20;1.10;;;27.20;56.50;;;;;;5085499;28;20200;-77
2022/07/05 11:01:23;;;;;;;3.63;0.60;;;27.20;57.90;;;;;;5083522;28;20184;-77
2022/07/05 11:03:52;;;;;;;3.63;0.90;;;27.10;56.90;;;;;;5078979;28;20410;-77
2022/07/05 11:06:26;;;;;;;2.33;1.00;;;26.90;56.00;;;;;;5079724;28;20418;-77
2022/07/05 11:08:57;;;;;;;1.60;0.70;;;27.00;56.30;;;;;;5081423;28;20513;-77
2022/07/05 11:11:24;;;;;;;1.50;0.70;;;26.90;58.80;;;;;;5081926;28;20534;-77
2022/07/05 11:13:50;;;;;;;3.27;0.90;;;26.60;58.50;;;;;;5080959;28;20459;-77
2022/07/05 11:16:31;;;;;;;1.63;0.50;;;26.80;58.00;;;;;;5082701;28;20418;-76
2022/07/05 11:19:08;;;;;;;3.20;1.17;;;27.10;58.10;;;;;;5079482;28;20176;-77
2022/07/05 11:21:35;;;;;;;2.97;1.47;;;26.90;57.60;;;;;;5093435;28;20453;-76
2022/07/05 11:24:22;;;;;;;1.97;0.70;;;26.70;58.50;;;;;;5096225;28;20507;-77
2022/07/05 11:26:49;;;;;;;2.43;0.90;;;26.50;60.70;;;;;;5088515;28;20464;-77
2022/07/05 11:29:53;;;;;;;2.00;0.80;;;26.50;59.40;;;;;;5098628;28;20414;-78
2022/07/05 11:32:23;;;;;;;2.30;1.00;;;26.50;58.00;;;;;;5099429;28;20419;-78
2022/07/05 11:34:53;;;;;;;2.07;0.93;;;26.60;59.00;;;;;;5095434;28;20466;-77
2022/07/05 11:37:28;;;;;;;1.97;0.70;;;26.70;57.90;;;;;;5112333;28;20417;-78
2022/07/05 11:40:13;;;;;;;2.33;0.80;;;26.90;58.50;;;;;;5110773;28;20468;-78
2022/07/05 11:42:47;;;;;;;3.07;1.10;;;26.90;58.00;;;;;;5112869;28;20720;-77
2022/07/05 11:45:13;;;;;;;2.40;0.83;;;26.90;56.30;;;;;;5110688;28;20428;-77
2022/07/05 11:47:39;;;;;;;1.83;1.07;;;26.90;57.90;;;;;;5112274;28;20204;-76
2022/07/05 11:50:05;;;;;;;2.20;0.73;;;26.90;56.70;;;;;;5109863;28;20426;-76
2022/07/05 11:52:32;;;;;;;7.20;1.10;;;26.80;57.70;;;;;;5116967;28;20414;-77
2022/07/05 11:55:00;;;;;;;2.50;1.00;;;26.60;58.50;;;;;;5116104;28;20417;-78
2022/07/05 11:57:28;;;;;;;3.70;1.17;;;26.50;58.30;;;;;;5107614;28;20486;-77
2022/07/05 11:59:54;;;;;;;4.63;0.97;;;26.50;57.80;;;;;;5099494;28;20432;-79
2022/07/05 12:02:20;;;;;;;1.50;0.60;;;26.70;56.60;;;;;;5099179;28;20414;-79
2022/07/05 12:04:49;;;;;;;11.23;0.80;;;26.70;57.00;;;;;;5100521;28;20172;-78
2022/07/05 12:07:32;;;;;;;5.07;1.03;;;26.60;58.40;;;;;;5113844;28;20195;-78
2022/07/05 12:12:44;;;;;;;2.50;1.00;;;27.10;57.70;;;;;;5093021;28;20425;-79
2022/07/05 12:15:09;;;;;;;1.87;0.70;;;27.20;58.20;;;;;;5086158;28;20410;-78
2022/07/05 12:17:36;;;;;;;1.70;0.80;;;27.20;56.90;;;;;;5088020;28;20183;-78
2022/07/05 12:20:06;;;;;;;1.70;0.77;;;27.00;57.90;;;;;;5086315;28;20180;-78
2022/07/05 12:22:36;;;;;;;1.70;0.80;;;27.00;58.10;;;;;;5089282;28;20180;-77
2022/07/05 12:25:04;;;;;;;1.50;0.70;;;27.20;57.30;;;;;;5096149;28;20424;-77
2022/07/05 12:27:32;;;;;;;3.43;1.10;;;27.30;61.30;;;;;;5077982;28;20226;-78
2022/07/05 12:29:58;;;;;;;1.80;0.60;;;27.40;58.90;;;;;;5094926;28;20555;-78
2022/07/05 12:32:24;;;;;;;3.00;0.80;;;27.20;57.20;;;;;;5095788;28;20229;-78
2022/07/05 12:34:50;;;;;;;2.00;0.80;;;27.20;56.70;;;;;;5103293;28;20418;-78
2022/07/05 12:37:21;;;;;;;1.60;0.70;;;26.90;59.90;;;;;;5094705;28;20842;-78
2022/07/05 12:39:48;;;;;;;3.87;1.10;;;26.90;56.90;;;;;;5094007;28;20180;-78
2022/07/05 12:42:36;;;;;;;3.67;1.00;;;26.80;59.90;;;;;;5084698;28;20517;-78
2022/07/05 12:45:12;;;;;;;8.00;0.83;;;27.00;57.30;;;;;;5089128;28;20179;-78
2022/07/05 12:47:55;;;;;;;3.00;0.70;;;27.30;56.60;;;;;;5085022;28;20448;-78
2022/07/05 12:50:28;;;;;;;1.90;0.80;;;27.20;59.30;;;;;;5098581;27;20183;-79
2022/07/05 12:58:58;;;;;;;2.37;0.87;;;27.60;57.00;;;;;;5085875;28;20194;-78
2022/07/05 13:01:31;;;;;;;1.60;0.60;;;27.80;57.10;;;;;;5090271;28;20196;-78